Santa Fe, NM

11:22 PM MDT on October 21, 2014 (GMT -0600)
Casa Solana | Change Station
CLOSE
Current Station
Personal Weather Station
Location: Santa Fe, NM
Elevation: 6930 ft
Nearby Weather Stations

Elev 6930 ft 35.69 °N, 105.96 °W | Updated 1 minute ago

Overcast
Overcast
51.0 °F
Feels Like 51.0 °F
N
0.0
Wind Variable Wind from SE
Gusts 0.0 mph

Today
High -- | Low -- °F
--% Chance of Precip.
Yesterday
High -- | Low -- °F
Precip. -- in
7:15 AM 6:20 PM
Waning Crescent, 3% visible
Pressure 29.96 in
Visibility 10.0 miles
Clouds Mostly Cloudy 4300 ft
Overcast 9000 ft
Dew Point 46 °F
Humidity 82%
Rainfall 0.09 in
Snow Depth 0 in
UV 0 out of 12
Pollen 3.40 out of 12
Air Quality Not available.
Flu Activity Sporadic
METAR KSAF 220453Z AUTO 16011KT 10SM BKN043 OVC090 12/09 A3015 RMK AO2 SLP144 T01220089

More Conditions Fewer Conditions

Pressure 29.96 in
Visibility 10.0 miles
Clouds Mostly Cloudy 4300 ft
Overcast 9000 ft
Dew Point 46 °F
Humidity 82%
Rainfall 0.09 in
Snow Depth 0 in
UV 0 out of 12
Pollen 3.40 out of 12
Air Quality Not available.
Flu Activity Sporadic
METAR KSAF 220453Z AUTO 16011KT 10SM BKN043 OVC090 12/09 A3015 RMK AO2 SLP144 T01220089

More Conditions Fewer Conditions

Nowcast | as of 9:40 PM MDT on October 21, 2014

Isolated light rain showers will continue to impact much of central and western New Mexico through the evening. Additional rainfall amounts will generally be one tenth of an inch or less. Areas that may be impacted include the area from El Vado to Chama... Quemado to Fence Lake...Grants and Thoreau.

×

10-Day Weather Forecast

Almanac

Astronomy

Oct. 21, 2014 Rise Set
Actual Time 7:15 AM MDT 6:20 PM MDT
Civil Twilight 6:49 AM MDT 6:46 PM MDT
Nautical Twilight 6:20 AM MDT 7:16 PM MDT
Astronomical Twilight 5:50 AM MDT 7:45 PM MDT
Moon 5:06 AM MDT (10/21) 5:12 PM MDT (10/21)
Length of Visible Light 11h 56m
Length of Day
11h 04m
Tomorrow will be 2m 7s shorter.
Waning Crescent, 3% of the Moon is Illuminated
Oct 22
Waning Crescent
Oct 23
New
Oct 30
First Quarter
Nov 6
Full
Nov 14
Last Quarter

Yesterday's Extremes

State Highs State Lows

Community

WunderPhotos

Upload Photos

1,763,884 photos uploaded!

Nearby

Snow Depth

Station Depth Elevation
Elk Cabin 0 in 8210 ft
Wesner Springs 3 in 11120 ft
Quemazon 1 in 9500 ft
Gallegos Peak 0 in 9800 ft
Senorita Divide #2 0 in 8600 ft

Earthquake Activity

City Distance Mag. Time & Date
Trinidad, Colorado 111 miles 2.7 10:33 PM MDT
2014-10-20
Trinidad, Colorado 122 miles 2.5 10:01 PM MDT
2014-10-19
Minimum magnitude displayed is 2.5.

Coastal Water Temperatures

Place Temperature
No Stations Reporting

Nearby Weather Stations